HKMO/MBA METAR and TAF weather

Enter ICAO airport designator
Station Type Date Time Source
HKMO METAR 2020/07/12 06:00 UTC NOAA

HKMO 120600Z 21010KT 9999 SCT021 25/23 Q1016 NOSIG


Station Type Date Time Source
HKMO Decoded METAR 2020/07/12 06:00 UTC NOAA

Mombasa, Kenya (HKMO) 04-02S 039-37E 55M
Jul 12, 2020 - 02:00 AM EDT / 2020.07.12 0600 UTC
Wind: from the SSW (210 degrees) at 12 MPH (10 KT):0
Visibility: greater than 7 mile(s):0
Sky conditions: partly cloudy
Temperature: 77 F (25 C)
Dew Point: 73 F (23 C)
Relative Humidity: 88%
Pressure (altimeter): 30.00 in. Hg (1016 hPa)
ob: HKMO 120600Z 21010KT 9999 SCT021 25/23 Q1016 NOSIG
cycle: 6

Station Type Date Time Source
HKMO TAF 2020/07/11 18:39 UTC NOAA

TAF TAF HKMO 101700Z 1018/1124 20005KT 9999 FEW023 /
TEMPO 1100/1106 -RA SCT019 BKN080 /
BECMG 1109/1115 17010KT SCT025 /
BECMG 1118/1121 18005KT SCT019

Example: see airport list